Track Родинков Артем

Time Latitude Longitude Accuracy (66% radius in meters) Altitude (meters) Speed (km/hour) Bearing (degrees) Battery (%) GPS flag
15:57:33 55.884885 37.930906 15 193 0 198.92132568359 2 1 delete
15:57:21 55.884896 37.930916 15 194 0 198.92132568359 2 1 delete
15:57:16 55.884906 37.930944 15 195 0 212.35581970215 2 1 delete
15:57:08 55.884915 37.931036 15 195 0 278.8935546875 2 1 delete
15:57:03 55.884902 37.931124 15 193 0 141.04066467285 2 1 delete
15:56:57 55.884894 37.931182 15 195 0 141.04066467285 2 1 delete
15:56:43 55.884885 37.931211 25 197 0 141.04066467285 2 1 delete
15:56:29 55.884877 37.931205 15 193 0 141.04066467285 2 1 delete
15:56:23 55.884877 37.931205 15 197 0 141.04066467285 2 1 delete
15:56:17 55.884892 37.931128 15 204 0 110.04169464111 2 1 delete
15:56:14 55.884891 37.931060 15 206 0 110.04169464111 2 1 delete
15:55:59 55.884891 37.931060 15 204 0 110.04169464111 2 1 delete
15:55:47 55.884875 37.931045 15 190 0 110.04169464111 2 1 delete
15:55:40 55.884875 37.931046 15 191 0 110.04169464111 2 1 delete
15:55:32 55.884884 37.931086 15 196 0 110.04169464111 2 1 delete
15:55:18 55.884881 37.931151 15 206 0 110.04169464111 2 1 delete
15:55:17 55.884881 37.931152 15 207 0 110.04169464111 2 1 delete
15:55:16 55.884883 37.931251 15 207 0 110.04169464111 2 1 delete
15:55:04 55.884899 37.931333 25 199 0 110.04169464111 2 1 delete
15:55:03 55.884899 37.931334 25 198 0 110.04169464111 2 1 delete
15:55:01 55.884922 37.931449 25 193 0 110.04169464111 2 1 delete
15:54:50 55.884959 37.931520 15 194 0 110.04169464111 2 1 delete
15:54:49 55.884970 37.931492 15 196 0 110.04169464111 2 1 delete
15:54:43 55.884994 37.931399 15 198 0 103.04997253418 2 1 delete
15:54:39 55.885012 37.931320 15 197 0.10311757028103 103.04997253418 2 1 delete
15:54:36 55.885024 37.931262 15 200 0 100.49414825439 2 1 delete
15:54:27 55.885036 37.931223 25 205 0 98.844169616699 2 1 delete
15:54:25 55.885045 37.931117 30 208 0.58214217424393 95.04549407959 2 1 delete
15:54:23 55.885035 37.930987 45 209 0.38445821404457 78.984672546387 2 1 delete
15:54:20 55.884987 37.930833 35 199 0 328.69192504883 2 1 delete
15:54:11 55.884949 37.930773 15 188 0 253.20948791504 2 1 delete
15:54:05 55.884954 37.930764 15 182 0 253.20948791504 2 1 delete
15:53:59 55.884968 37.930800 15 183 0.3246653676033 250.93879699707 2 1 delete
15:53:53 55.884976 37.930851 15 182 0 323.52035522461 2 1 delete
15:53:42 55.884955 37.930877 15 186 0 285.19287109375 2 1 delete
15:53:37 55.884922 37.930914 10 186 0.31789374351501 303.14877319336 2 1 delete
15:53:32 55.884894 37.930977 15 185 0 264.10955810547 2 1 delete
15:53:31 55.884884 37.931002 15 185 0 264.10955810547 2 1 delete
15:53:21 55.884866 37.931079 15 187 0 263.83544921875 2 1 delete
15:53:18 55.884857 37.931135 15 186 0 241.50161743164 2 1 delete
15:53:16 55.884856 37.931183 15 183 0 204.59019470215 2 1 delete
15:53:13 55.884885 37.931273 15 180 0 162.09262084961 2 1 delete
15:53:07 55.884939 37.931310 30 180 0 138.98425292969 2 1 delete
15:53:03 55.884985 37.931353 25 183 0.23626871407032 135.39227294922 2 1 delete
15:52:56 55.885034 37.931401 20 192 0 58.049728393555 2 1 delete
15:52:49 55.885045 37.931383 15 194 0 81.599899291992 2 1 delete
15:52:43 55.885062 37.931338 15 190 0 129.0813293457 2 1 delete
15:52:40 55.885086 37.931258 15 189 0.12303899973631 137.27911376953 2 1 delete
15:52:38 55.885107 37.931152 15 192 0 104.15623474121 2 1 delete
15:52:37 55.885119 37.931027 15 193 0 112.27081298828 2 1 delete